sensor_id;sensor_type;location;lat;lon;timestamp;P1;durP1;ratioP1;P2;durP2;ratioP2
24485;SDS011;13449;49.374;8.584;2023-07-29T00:02:03;12.02;;;2.03;;
24485;SDS011;13449;49.374;8.584;2023-07-29T00:04:31;9.07;;;1.77;;
24485;SDS011;13449;49.374;8.584;2023-07-29T00:06:57;1.73;;;1.50;;
24485;SDS011;13449;49.374;8.584;2023-07-29T00:09:24;2.45;;;1.63;;
24485;SDS011;13449;49.374;8.584;2023-07-29T00:11:51;8.23;;;1.98;;
24485;SDS011;13449;49.374;8.584;2023-07-29T00:14:18;6.82;;;1.88;;
24485;SDS011;13449;49.374;8.584;2023-07-29T00:16:44;1.83;;;1.70;;
24485;SDS011;13449;49.374;8.584;2023-07-29T00:19:14;7.28;;;1.98;;
24485;SDS011;13449;49.374;8.584;2023-07-29T00:21:40;5.20;;;1.55;;
24485;SDS011;13449;49.374;8.584;2023-07-29T00:24:07;9.00;;;1.55;;
24485;SDS011;13449;49.374;8.584;2023-07-29T00:26:33;10.18;;;1.85;;
24485;SDS011;13449;49.374;8.584;2023-07-29T00:29:00;9.32;;;1.80;;
24485;SDS011;13449;49.374;8.584;2023-07-29T00:31:27;10.45;;;1.92;;
24485;SDS011;13449;49.374;8.584;2023-07-29T00:33:54;6.85;;;1.75;;
24485;SDS011;13449;49.374;8.584;2023-07-29T00:36:20;1.77;;;1.67;;
24485;SDS011;13449;49.374;8.584;2023-07-29T00:38:46;2.78;;;1.88;;
24485;SDS011;13449;49.374;8.584;2023-07-29T00:41:13;2.10;;;1.75;;
24485;SDS011;13449;49.374;8.584;2023-07-29T00:43:40;7.05;;;2.15;;
24485;SDS011;13449;49.374;8.584;2023-07-29T00:46:07;3.35;;;1.73;;
24485;SDS011;13449;49.374;8.584;2023-07-29T00:48:35;3.03;;;1.65;;
24485;SDS011;13449;49.374;8.584;2023-07-29T00:51:02;7.88;;;1.55;;
24485;SDS011;13449;49.374;8.584;2023-07-29T00:53:29;5.45;;;1.70;;
24485;SDS011;13449;49.374;8.584;2023-07-29T00:55:56;1.83;;;1.73;;
24485;SDS011;13449;49.374;8.584;2023-07-29T00:58:22;4.93;;;1.50;;
24485;SDS011;13449;49.374;8.584;2023-07-29T01:00:49;10.82;;;1.63;;
24485;SDS011;13449;49.374;8.584;2023-07-29T01:03:16;1.33;;;1.23;;
24485;SDS011;13449;49.374;8.584;2023-07-29T01:06:12;7.22;;;1.20;;
24485;SDS011;13449;49.374;8.584;2023-07-29T01:08:55;3.47;;;1.30;;
24485;SDS011;13449;49.374;8.584;2023-07-29T01:14:04;2.10;;;1.63;;
24485;SDS011;13449;49.374;8.584;2023-07-29T01:16:41;4.72;;;1.65;;
24485;SDS011;13449;49.374;8.584;2023-07-29T01:19:15;1.77;;;1.48;;
24485;SDS011;13449;49.374;8.584;2023-07-29T01:22:10;2.42;;;1.40;;
24485;SDS011;13449;49.374;8.584;2023-07-29T01:24:38;2.05;;;1.48;;
24485;SDS011;13449;49.374;8.584;2023-07-29T01:27:05;3.85;;;1.48;;
24485;SDS011;13449;49.374;8.584;2023-07-29T01:29:32;2.42;;;1.42;;
24485;SDS011;13449;49.374;8.584;2023-07-29T01:32:01;4.88;;;1.60;;
24485;SDS011;13449;49.374;8.584;2023-07-29T01:34:35;1.58;;;1.48;;
24485;SDS011;13449;49.374;8.584;2023-07-29T01:37:10;3.20;;;1.63;;
24485;SDS011;13449;49.374;8.584;2023-07-29T01:39:41;1.97;;;1.70;;
24485;SDS011;13449;49.374;8.584;2023-07-29T01:42:11;5.25;;;1.90;;
24485;SDS011;13449;49.374;8.584;2023-07-29T01:44:38;5.45;;;1.42;;
24485;SDS011;13449;49.374;8.584;2023-07-29T01:47:04;5.85;;;2.20;;
24485;SDS011;13449;49.374;8.584;2023-07-29T01:49:33;2.33;;;1.65;;
24485;SDS011;13449;49.374;8.584;2023-07-29T01:51:59;1.63;;;1.52;;
24485;SDS011;13449;49.374;8.584;2023-07-29T01:54:28;2.05;;;1.70;;
24485;SDS011;13449;49.374;8.584;2023-07-29T01:56:55;2.95;;;1.30;;
24485;SDS011;13449;49.374;8.584;2023-07-29T01:59:21;1.60;;;1.50;;
24485;SDS011;13449;49.374;8.584;2023-07-29T02:01:50;8.70;;;1.80;;
24485;SDS011;13449;49.374;8.584;2023-07-29T02:04:17;1.42;;;1.33;;
24485;SDS011;13449;49.374;8.584;2023-07-29T02:06:43;2.60;;;1.70;;
24485;SDS011;13449;49.374;8.584;2023-07-29T02:09:10;1.85;;;1.70;;
24485;SDS011;13449;49.374;8.584;2023-07-29T02:11:36;1.90;;;1.40;;
24485;SDS011;13449;49.374;8.584;2023-07-29T02:14:05;3.70;;;2.00;;
24485;SDS011;13449;49.374;8.584;2023-07-29T02:16:34;11.60;;;1.77;;
24485;SDS011;13449;49.374;8.584;2023-07-29T02:19:01;2.33;;;1.98;;
24485;SDS011;13449;49.374;8.584;2023-07-29T02:21:30;2.83;;;1.88;;
24485;SDS011;13449;49.374;8.584;2023-07-29T02:23:57;2.28;;;1.83;;
24485;SDS011;13449;49.374;8.584;2023-07-29T02:26:23;2.58;;;1.98;;
24485;SDS011;13449;49.374;8.584;2023-07-29T02:28:49;2.22;;;2.03;;
24485;SDS011;13449;49.374;8.584;2023-07-29T02:33:47;2.30;;;1.73;;
24485;SDS011;13449;49.374;8.584;2023-07-29T02:36:16;1.60;;;1.50;;
24485;SDS011;13449;49.374;8.584;2023-07-29T02:38:43;1.67;;;1.55;;
24485;SDS011;13449;49.374;8.584;2023-07-29T02:41:10;1.73;;;1.63;;
24485;SDS011;13449;49.374;8.584;2023-07-29T02:43:38;1.98;;;1.77;;
24485;SDS011;13449;49.374;8.584;2023-07-29T02:46:06;2.38;;;1.75;;
24485;SDS011;13449;49.374;8.584;2023-07-29T02:48:35;2.78;;;1.77;;
24485;SDS011;13449;49.374;8.584;2023-07-29T02:51:06;4.43;;;1.85;;
24485;SDS011;13449;49.374;8.584;2023-07-29T02:53:32;7.50;;;1.77;;
24485;SDS011;13449;49.374;8.584;2023-07-29T02:55:59;2.03;;;1.58;;
24485;SDS011;13449;49.374;8.584;2023-07-29T02:58:25;2.97;;;1.35;;
24485;SDS011;13449;49.374;8.584;2023-07-29T03:00:52;3.58;;;1.80;;
24485;SDS011;13449;49.374;8.584;2023-07-29T03:03:21;6.15;;;1.70;;
24485;SDS011;13449;49.374;8.584;2023-07-29T03:05:56;2.40;;;1.30;;
24485;SDS011;13449;49.374;8.584;2023-07-29T03:08:24;6.70;;;1.40;;
24485;SDS011;13449;49.374;8.584;2023-07-29T03:10:53;4.70;;;1.77;;
24485;SDS011;13449;49.374;8.584;2023-07-29T03:13:20;2.83;;;1.48;;
24485;SDS011;13449;49.374;8.584;2023-07-29T03:15:46;4.18;;;1.65;;
24485;SDS011;13449;49.374;8.584;2023-07-29T03:18:13;4.45;;;1.30;;
24485;SDS011;13449;49.374;8.584;2023-07-29T03:20:39;1.40;;;1.30;;
24485;SDS011;13449;49.374;8.584;2023-07-29T03:23:06;4.13;;;1.90;;
24485;SDS011;13449;49.374;8.584;2023-07-29T03:25:33;1.25;;;1.15;;
24485;SDS011;13449;49.374;8.584;2023-07-29T03:28:00;1.98;;;1.25;;
24485;SDS011;13449;49.374;8.584;2023-07-29T03:30:26;2.20;;;1.70;;
24485;SDS011;13449;49.374;8.584;2023-07-29T03:32:53;3.72;;;2.00;;
24485;SDS011;13449;49.374;8.584;2023-07-29T03:35:19;1.50;;;1.23;;
24485;SDS011;13449;49.374;8.584;2023-07-29T03:37:48;5.43;;;1.23;;
24485;SDS011;13449;49.374;8.584;2023-07-29T03:40:14;5.63;;;1.15;;
24485;SDS011;13449;49.374;8.584;2023-07-29T03:42:41;5.32;;;1.30;;
24485;SDS011;13449;49.374;8.584;2023-07-29T03:45:08;1.50;;;1.40;;
24485;SDS011;13449;49.374;8.584;2023-07-29T03:47:34;6.05;;;3.75;;
24485;SDS011;13449;49.374;8.584;2023-07-29T03:50:03;4.35;;;2.60;;
24485;SDS011;13449;49.374;8.584;2023-07-29T03:52:30;5.97;;;1.55;;
24485;SDS011;13449;49.374;8.584;2023-07-29T03:54:57;1.55;;;1.02;;
24485;SDS011;13449;49.374;8.584;2023-07-29T03:57:25;1.55;;;1.45;;
24485;SDS011;13449;49.374;8.584;2023-07-29T03:59:52;11.80;;;1.50;;
24485;SDS011;13449;49.374;8.584;2023-07-29T04:02:21;1.95;;;1.40;;
24485;SDS011;13449;49.374;8.584;2023-07-29T04:04:48;3.30;;;1.60;;
24485;SDS011;13449;49.374;8.584;2023-07-29T04:07:14;5.90;;;1.38;;
24485;SDS011;13449;49.374;8.584;2023-07-29T04:09:41;7.35;;;1.13;;
24485;SDS011;13449;49.374;8.584;2023-07-29T04:12:09;1.88;;;1.52;;
24485;SDS011;13449;49.374;8.584;2023-07-29T04:14:36;1.83;;;1.35;;
24485;SDS011;13449;49.374;8.584;2023-07-29T04:17:05;10.43;;;1.80;;
24485;SDS011;13449;49.374;8.584;2023-07-29T04:19:32;2.60;;;1.40;;
24485;SDS011;13449;49.374;8.584;2023-07-29T04:21:58;2.95;;;1.33;;
24485;SDS011;13449;49.374;8.584;2023-07-29T04:24:25;3.42;;;1.38;;
24485;SDS011;13449;49.374;8.584;2023-07-29T04:26:51;6.13;;;1.70;;
24485;SDS011;13449;49.374;8.584;2023-07-29T04:29:22;2.53;;;1.40;;
24485;SDS011;13449;49.374;8.584;2023-07-29T04:31:49;2.25;;;1.60;;
24485;SDS011;13449;49.374;8.584;2023-07-29T04:34:17;8.20;;;1.67;;
24485;SDS011;13449;49.374;8.584;2023-07-29T04:36:44;6.78;;;1.80;;
24485;SDS011;13449;49.374;8.584;2023-07-29T04:39:11;15.73;;;2.00;;
24485;SDS011;13449;49.374;8.584;2023-07-29T04:41:38;4.22;;;1.48;;
24485;SDS011;13449;49.374;8.584;2023-07-29T04:44:06;15.02;;;1.50;;
24485;SDS011;13449;49.374;8.584;2023-07-29T04:46:33;8.50;;;2.00;;
24485;SDS011;13449;49.374;8.584;2023-07-29T04:49:00;4.68;;;1.73;;
24485;SDS011;13449;49.374;8.584;2023-07-29T04:51:27;6.88;;;1.65;;
24485;SDS011;13449;49.374;8.584;2023-07-29T04:53:53;1.70;;;1.50;;
24485;SDS011;13449;49.374;8.584;2023-07-29T04:56:20;4.28;;;1.65;;
24485;SDS011;13449;49.374;8.584;2023-07-29T04:58:46;6.80;;;1.67;;
24485;SDS011;13449;49.374;8.584;2023-07-29T05:01:13;13.75;;;2.17;;
24485;SDS011;13449;49.374;8.584;2023-07-29T05:03:39;7.13;;;1.63;;
24485;SDS011;13449;49.374;8.584;2023-07-29T05:06:06;7.22;;;1.70;;
24485;SDS011;13449;49.374;8.584;2023-07-29T05:08:32;17.73;;;2.45;;
24485;SDS011;13449;49.374;8.584;2023-07-29T05:10:59;1.55;;;1.27;;
24485;SDS011;13449;49.374;8.584;2023-07-29T05:13:25;3.35;;;2.08;;
24485;SDS011;13449;49.374;8.584;2023-07-29T05:15:52;23.73;;;2.00;;
24485;SDS011;13449;49.374;8.584;2023-07-29T05:18:18;5.40;;;1.77;;
24485;SDS011;13449;49.374;8.584;2023-07-29T05:20:47;15.60;;;2.00;;
24485;SDS011;13449;49.374;8.584;2023-07-29T05:23:14;8.30;;;2.03;;
24485;SDS011;13449;49.374;8.584;2023-07-29T05:25:41;10.07;;;2.20;;
24485;SDS011;13449;49.374;8.584;2023-07-29T05:28:07;13.60;;;2.05;;
24485;SDS011;13449;49.374;8.584;2023-07-29T05:30:34;7.25;;;1.80;;
24485;SDS011;13449;49.374;8.584;2023-07-29T05:33:03;2.58;;;1.52;;
24485;SDS011;13449;49.374;8.584;2023-07-29T05:35:33;8.60;;;1.77;;
24485;SDS011;13449;49.374;8.584;2023-07-29T05:38:03;14.25;;;2.08;;
24485;SDS011;13449;49.374;8.584;2023-07-29T05:40:35;7.47;;;2.42;;
24485;SDS011;13449;49.374;8.584;2023-07-29T05:43:02;12.63;;;1.95;;
24485;SDS011;13449;49.374;8.584;2023-07-29T05:45:29;3.58;;;1.70;;
24485;SDS011;13449;49.374;8.584;2023-07-29T05:47:57;9.15;;;2.38;;
24485;SDS011;13449;49.374;8.584;2023-07-29T05:50:23;10.48;;;1.48;;
24485;SDS011;13449;49.374;8.584;2023-07-29T05:52:52;5.97;;;2.13;;
24485;SDS011;13449;49.374;8.584;2023-07-29T05:55:18;5.47;;;2.08;;
24485;SDS011;13449;49.374;8.584;2023-07-29T05:57:45;1.88;;;1.75;;
24485;SDS011;13449;49.374;8.584;2023-07-29T06:00:14;3.42;;;2.05;;
24485;SDS011;13449;49.374;8.584;2023-07-29T06:02:41;3.67;;;1.90;;
24485;SDS011;13449;49.374;8.584;2023-07-29T06:05:07;7.55;;;2.08;;
24485;SDS011;13449;49.374;8.584;2023-07-29T06:07:36;10.13;;;1.95;;
24485;SDS011;13449;49.374;8.584;2023-07-29T06:10:03;3.75;;;1.77;;
24485;SDS011;13449;49.374;8.584;2023-07-29T06:12:32;9.48;;;2.33;;
24485;SDS011;13449;49.374;8.584;2023-07-29T06:14:58;5.30;;;2.05;;
24485;SDS011;13449;49.374;8.584;2023-07-29T06:17:26;3.70;;;2.55;;
24485;SDS011;13449;49.374;8.584;2023-07-29T06:19:55;5.70;;;2.28;;
24485;SDS011;13449;49.374;8.584;2023-07-29T06:22:22;5.40;;;2.28;;
24485;SDS011;13449;49.374;8.584;2023-07-29T06:24:48;8.35;;;2.40;;
24485;SDS011;13449;49.374;8.584;2023-07-29T06:27:15;3.42;;;2.65;;
24485;SDS011;13449;49.374;8.584;2023-07-29T06:29:41;5.20;;;2.20;;
24485;SDS011;13449;49.374;8.584;2023-07-29T06:32:08;10.93;;;2.78;;
24485;SDS011;13449;49.374;8.584;2023-07-29T06:34:34;7.72;;;2.45;;
24485;SDS011;13449;49.374;8.584;2023-07-29T06:37:01;7.57;;;3.15;;
24485;SDS011;13449;49.374;8.584;2023-07-29T06:39:27;4.75;;;2.35;;
24485;SDS011;13449;49.374;8.584;2023-07-29T06:41:54;5.72;;;2.70;;
24485;SDS011;13449;49.374;8.584;2023-07-29T06:44:20;5.57;;;2.70;;
24485;SDS011;13449;49.374;8.584;2023-07-29T06:46:47;5.88;;;2.53;;
24485;SDS011;13449;49.374;8.584;2023-07-29T06:49:14;4.85;;;2.90;;
24485;SDS011;13449;49.374;8.584;2023-07-29T06:51:40;6.60;;;2.90;;
24485;SDS011;13449;49.374;8.584;2023-07-29T06:54:09;6.63;;;2.72;;
24485;SDS011;13449;49.374;8.584;2023-07-29T06:56:35;7.20;;;3.25;;
24485;SDS011;13449;49.374;8.584;2023-07-29T06:59:02;6.10;;;2.30;;
24485;SDS011;13449;49.374;8.584;2023-07-29T07:01:29;4.68;;;2.60;;
24485;SDS011;13449;49.374;8.584;2023-07-29T07:03:55;13.68;;;3.30;;
24485;SDS011;13449;49.374;8.584;2023-07-29T07:06:24;6.25;;;3.22;;
24485;SDS011;13449;49.374;8.584;2023-07-29T07:08:55;7.80;;;3.47;;
24485;SDS011;13449;49.374;8.584;2023-07-29T07:11:24;9.57;;;3.15;;
24485;SDS011;13449;49.374;8.584;2023-07-29T07:13:53;6.97;;;3.08;;
24485;SDS011;13449;49.374;8.584;2023-07-29T07:16:20;3.88;;;3.10;;
24485;SDS011;13449;49.374;8.584;2023-07-29T07:18:46;3.22;;;2.58;;
24485;SDS011;13449;49.374;8.584;2023-07-29T07:21:13;4.43;;;2.72;;
24485;SDS011;13449;49.374;8.584;2023-07-29T07:23:41;6.15;;;3.38;;
24485;SDS011;13449;49.374;8.584;2023-07-29T07:26:08;6.18;;;3.13;;
24485;SDS011;13449;49.374;8.584;2023-07-29T07:28:34;6.03;;;2.95;;
24485;SDS011;13449;49.374;8.584;2023-07-29T07:31:01;4.38;;;3.00;;
24485;SDS011;13449;49.374;8.584;2023-07-29T07:33:28;4.25;;;3.25;;
24485;SDS011;13449;49.374;8.584;2023-07-29T07:35:54;4.60;;;2.95;;
24485;SDS011;13449;49.374;8.584;2023-07-29T07:38:23;3.17;;;2.35;;
24485;SDS011;13449;49.374;8.584;2023-07-29T07:40:55;5.03;;;2.80;;
24485;SDS011;13449;49.374;8.584;2023-07-29T07:43:23;4.53;;;2.95;;
24485;SDS011;13449;49.374;8.584;2023-07-29T07:45:50;5.50;;;3.28;;
24485;SDS011;13449;49.374;8.584;2023-07-29T07:48:17;5.78;;;2.95;;
24485;SDS011;13449;49.374;8.584;2023-07-29T07:50:46;17.88;;;3.22;;
24485;SDS011;13449;49.374;8.584;2023-07-29T07:53:12;10.30;;;3.08;;
24485;SDS011;13449;49.374;8.584;2023-07-29T07:55:41;4.28;;;2.53;;
24485;SDS011;13449;49.374;8.584;2023-07-29T07:58:08;12.55;;;2.42;;
24485;SDS011;13449;49.374;8.584;2023-07-29T08:00:36;4.07;;;2.78;;
24485;SDS011;13449;49.374;8.584;2023-07-29T08:03:03;4.25;;;2.50;;
24485;SDS011;13449;49.374;8.584;2023-07-29T08:05:29;4.20;;;2.63;;
24485;SDS011;13449;49.374;8.584;2023-07-29T08:07:56;2.45;;;2.05;;
24485;SDS011;13449;49.374;8.584;2023-07-29T08:10:23;14.23;;;2.40;;
24485;SDS011;13449;49.374;8.584;2023-07-29T08:12:50;4.78;;;2.28;;
24485;SDS011;13449;49.374;8.584;2023-07-29T08:15:16;4.88;;;2.17;;
24485;SDS011;13449;49.374;8.584;2023-07-29T08:17:43;2.15;;;1.98;;
24485;SDS011;13449;49.374;8.584;2023-07-29T08:20:09;10.40;;;2.60;;
24485;SDS011;13449;49.374;8.584;2023-07-29T08:22:39;6.18;;;2.50;;
24485;SDS011;13449;49.374;8.584;2023-07-29T08:25:05;2.10;;;1.90;;
24485;SDS011;13449;49.374;8.584;2023-07-29T08:27:37;3.33;;;2.17;;
24485;SDS011;13449;49.374;8.584;2023-07-29T08:30:04;3.85;;;2.33;;
24485;SDS011;13449;49.374;8.584;2023-07-29T08:32:30;2.97;;;1.85;;
24485;SDS011;13449;49.374;8.584;2023-07-29T08:34:57;2.83;;;2.15;;
24485;SDS011;13449;49.374;8.584;2023-07-29T08:37:24;4.00;;;1.88;;
24485;SDS011;13449;49.374;8.584;2023-07-29T08:39:53;7.43;;;2.25;;
24485;SDS011;13449;49.374;8.584;2023-07-29T08:42:28;7.38;;;1.88;;
24485;SDS011;13449;49.374;8.584;2023-07-29T08:44:57;5.07;;;2.30;;
24485;SDS011;13449;49.374;8.584;2023-07-29T08:47:33;3.53;;;1.77;;
24485;SDS011;13449;49.374;8.584;2023-07-29T08:50:01;4.85;;;2.17;;
24485;SDS011;13449;49.374;8.584;2023-07-29T08:52:29;2.35;;;1.73;;
24485;SDS011;13449;49.374;8.584;2023-07-29T08:54:58;3.88;;;2.33;;
24485;SDS011;13449;49.374;8.584;2023-07-29T08:57:30;6.28;;;1.70;;
24485;SDS011;13449;49.374;8.584;2023-07-29T08:59:59;3.50;;;2.20;;
24485;SDS011;13449;49.374;8.584;2023-07-29T09:02:27;4.65;;;1.88;;
24485;SDS011;13449;49.374;8.584;2023-07-29T09:04:55;2.30;;;2.08;;
24485;SDS011;13449;49.374;8.584;2023-07-29T09:07:22;6.18;;;2.13;;
24485;SDS011;13449;49.374;8.584;2023-07-29T09:09:51;2.45;;;1.90;;
24485;SDS011;13449;49.374;8.584;2023-07-29T09:12:17;2.00;;;1.42;;
24485;SDS011;13449;49.374;8.584;2023-07-29T09:14:45;2.22;;;1.60;;
24485;SDS011;13449;49.374;8.584;2023-07-29T09:17:14;2.88;;;1.90;;
24485;SDS011;13449;49.374;8.584;2023-07-29T09:19:40;4.53;;;1.92;;
24485;SDS011;13449;49.374;8.584;2023-07-29T09:22:16;3.38;;;1.75;;
24485;SDS011;13449;49.374;8.584;2023-07-29T09:24:46;4.72;;;1.73;;
24485;SDS011;13449;49.374;8.584;2023-07-29T09:27:26;2.78;;;1.88;;
24485;SDS011;13449;49.374;8.584;2023-07-29T09:29:53;1.48;;;1.38;;
24485;SDS011;13449;49.374;8.584;2023-07-29T09:32:24;4.00;;;1.60;;
24485;SDS011;13449;49.374;8.584;2023-07-29T09:34:51;3.17;;;1.60;;
24485;SDS011;13449;49.374;8.584;2023-07-29T09:37:20;13.93;;;1.95;;
24485;SDS011;13449;49.374;8.584;2023-07-29T09:39:48;4.85;;;1.63;;
24485;SDS011;13449;49.374;8.584;2023-07-29T09:42:19;6.85;;;1.67;;
24485;SDS011;13449;49.374;8.584;2023-07-29T09:44:48;4.80;;;1.60;;
24485;SDS011;13449;49.374;8.584;2023-07-29T09:47:19;5.85;;;1.30;;
24485;SDS011;13449;49.374;8.584;2023-07-29T09:52:15;3.92;;;1.75;;
24485;SDS011;13449;49.374;8.584;2023-07-29T09:54:45;1.70;;;1.60;;
24485;SDS011;13449;49.374;8.584;2023-07-29T09:57:13;1.33;;;1.23;;
24485;SDS011;13449;49.374;8.584;2023-07-29T09:59:42;2.28;;;1.95;;
24485;SDS011;13449;49.374;8.584;2023-07-29T10:02:11;3.35;;;1.55;;
24485;SDS011;13449;49.374;8.584;2023-07-29T10:04:42;2.58;;;1.33;;
24485;SDS011;13449;49.374;8.584;2023-07-29T10:07:11;1.42;;;1.15;;
24485;SDS011;13449;49.374;8.584;2023-07-29T10:09:41;5.30;;;1.30;;
24485;SDS011;13449;49.374;8.584;2023-07-29T10:12:11;1.30;;;1.20;;
24485;SDS011;13449;49.374;8.584;2023-07-29T10:14:38;10.20;;;1.38;;
24485;SDS011;13449;49.374;8.584;2023-07-29T10:17:05;1.35;;;1.00;;
24485;SDS011;13449;49.374;8.584;2023-07-29T10:19:34;1.58;;;1.20;;
24485;SDS011;13449;49.374;8.584;2023-07-29T10:22:03;4.20;;;1.30;;
24485;SDS011;13449;49.374;8.584;2023-07-29T10:24:30;2.03;;;1.42;;
24485;SDS011;13449;49.374;8.584;2023-07-29T10:26:59;2.58;;;1.15;;
24485;SDS011;13449;49.374;8.584;2023-07-29T10:29:29;7.65;;;1.38;;
24485;SDS011;13449;49.374;8.584;2023-07-29T10:32:01;4.38;;;1.20;;
24485;SDS011;13449;49.374;8.584;2023-07-29T10:34:30;2.47;;;1.45;;
24485;SDS011;13449;49.374;8.584;2023-07-29T10:36:57;1.58;;;1.23;;
24485;SDS011;13449;49.374;8.584;2023-07-29T10:39:25;3.20;;;1.25;;
24485;SDS011;13449;49.374;8.584;2023-07-29T10:41:59;2.72;;;1.02;;
24485;SDS011;13449;49.374;8.584;2023-07-29T10:49:56;1.45;;;1.30;;
24485;SDS011;13449;49.374;8.584;2023-07-29T10:52:29;2.53;;;0.93;;
24485;SDS011;13449;49.374;8.584;2023-07-29T10:55:04;1.30;;;1.20;;
24485;SDS011;13449;49.374;8.584;2023-07-29T10:57:51;2.55;;;1.23;;
24485;SDS011;13449;49.374;8.584;2023-07-29T11:00:30;2.17;;;1.00;;
24485;SDS011;13449;49.374;8.584;2023-07-29T11:03:07;2.95;;;1.35;;
24485;SDS011;13449;49.374;8.584;2023-07-29T11:08:30;2.97;;;1.10;;
24485;SDS011;13449;49.374;8.584;2023-07-29T11:11:06;1.10;;;0.80;;
24485;SDS011;13449;49.374;8.584;2023-07-29T11:13:35;1.25;;;1.15;;
24485;SDS011;13449;49.374;8.584;2023-07-29T11:16:05;0.90;;;0.80;;
24485;SDS011;13449;49.374;8.584;2023-07-29T11:18:33;4.88;;;0.98;;
24485;SDS011;13449;49.374;8.584;2023-07-29T11:21:01;1.17;;;0.93;;
24485;SDS011;13449;49.374;8.584;2023-07-29T11:23:32;2.55;;;1.10;;
24485;SDS011;13449;49.374;8.584;2023-07-29T11:26:00;1.50;;;1.00;;
24485;SDS011;13449;49.374;8.584;2023-07-29T11:28:28;2.30;;;1.08;;
24485;SDS011;13449;49.374;8.584;2023-07-29T11:30:57;2.28;;;1.17;;
24485;SDS011;13449;49.374;8.584;2023-07-29T11:33:25;0.93;;;0.75;;
24485;SDS011;13449;49.374;8.584;2023-07-29T11:35:52;2.75;;;0.90;;
24485;SDS011;13449;49.374;8.584;2023-07-29T11:38:19;2.05;;;1.10;;
24485;SDS011;13449;49.374;8.584;2023-07-29T11:40:53;2.22;;;0.80;;
24485;SDS011;13449;49.374;8.584;2023-07-29T11:43:29;2.80;;;1.15;;
24485;SDS011;13449;49.374;8.584;2023-07-29T11:45:56;1.10;;;1.00;;
24485;SDS011;13449;49.374;8.584;2023-07-29T11:48:30;1.58;;;0.90;;
24485;SDS011;13449;49.374;8.584;2023-07-29T11:50:58;3.60;;;0.80;;
24485;SDS011;13449;49.374;8.584;2023-07-29T11:53:28;0.80;;;0.70;;
24485;SDS011;13449;49.374;8.584;2023-07-29T11:58:25;0.90;;;0.90;;
24485;SDS011;13449;49.374;8.584;2023-07-29T12:00:52;0.88;;;0.88;;
24485;SDS011;13449;49.374;8.584;2023-07-29T12:03:19;0.95;;;0.90;;
24485;SDS011;13449;49.374;8.584;2023-07-29T12:05:47;2.78;;;1.00;;
24485;SDS011;13449;49.374;8.584;2023-07-29T12:08:15;0.75;;;0.70;;
24485;SDS011;13449;49.374;8.584;2023-07-29T12:10:42;6.32;;;0.95;;
24485;SDS011;13449;49.374;8.584;2023-07-29T12:13:08;1.10;;;0.85;;
24485;SDS011;13449;49.374;8.584;2023-07-29T12:15:37;3.13;;;0.80;;
24485;SDS011;13449;49.374;8.584;2023-07-29T12:18:05;1.55;;;1.08;;
24485;SDS011;13449;49.374;8.584;2023-07-29T12:20:31;1.45;;;0.70;;
24485;SDS011;13449;49.374;8.584;2023-07-29T12:23:00;0.95;;;0.70;;
24485;SDS011;13449;49.374;8.584;2023-07-29T12:25:32;1.55;;;0.82;;
24485;SDS011;13449;49.374;8.584;2023-07-29T12:28:02;4.47;;;0.90;;
24485;SDS011;13449;49.374;8.584;2023-07-29T12:30:33;2.47;;;1.00;;
24485;SDS011;13449;49.374;8.584;2023-07-29T12:33:04;0.85;;;0.77;;
24485;SDS011;13449;49.374;8.584;2023-07-29T12:35:35;0.73;;;0.70;;
24485;SDS011;13449;49.374;8.584;2023-07-29T12:38:02;2.45;;;0.73;;
24485;SDS011;13449;49.374;8.584;2023-07-29T12:40:29;1.10;;;1.00;;
24485;SDS011;13449;49.374;8.584;2023-07-29T12:42:55;0.70;;;0.70;;
24485;SDS011;13449;49.374;8.584;2023-07-29T12:45:22;2.22;;;0.90;;
24485;SDS011;13449;49.374;8.584;2023-07-29T12:47:52;1.30;;;0.90;;
24485;SDS011;13449;49.374;8.584;2023-07-29T12:50:19;1.67;;;1.10;;
24485;SDS011;13449;49.374;8.584;2023-07-29T12:52:45;2.45;;;1.00;;
24485;SDS011;13449;49.374;8.584;2023-07-29T12:55:12;2.20;;;1.02;;
24485;SDS011;13449;49.374;8.584;2023-07-29T12:57:42;1.20;;;0.80;;
24485;SDS011;13449;49.374;8.584;2023-07-29T13:00:10;0.95;;;0.85;;
24485;SDS011;13449;49.374;8.584;2023-07-29T13:02:37;2.63;;;0.63;;
24485;SDS011;13449;49.374;8.584;2023-07-29T13:05:08;1.05;;;0.75;;
24485;SDS011;13449;49.374;8.584;2023-07-29T13:07:40;0.75;;;0.75;;
24485;SDS011;13449;49.374;8.584;2023-07-29T13:10:07;2.13;;;0.80;;
24485;SDS011;13449;49.374;8.584;2023-07-29T13:12:38;3.85;;;0.70;;
24485;SDS011;13449;49.374;8.584;2023-07-29T13:15:05;4.05;;;0.75;;
24485;SDS011;13449;49.374;8.584;2023-07-29T13:17:33;1.25;;;0.85;;
24485;SDS011;13449;49.374;8.584;2023-07-29T13:20:00;2.42;;;0.80;;
24485;SDS011;13449;49.374;8.584;2023-07-29T13:22:29;4.00;;;0.88;;
24485;SDS011;13449;49.374;8.584;2023-07-29T13:24:56;0.80;;;0.80;;
24485;SDS011;13449;49.374;8.584;2023-07-29T13:27:22;1.20;;;0.80;;
24485;SDS011;13449;49.374;8.584;2023-07-29T13:29:52;0.57;;;0.52;;
24485;SDS011;13449;49.374;8.584;2023-07-29T13:32:19;4.32;;;0.80;;
24485;SDS011;13449;49.374;8.584;2023-07-29T13:34:48;3.42;;;0.77;;
24485;SDS011;13449;49.374;8.584;2023-07-29T13:37:14;1.65;;;1.00;;
24485;SDS011;13449;49.374;8.584;2023-07-29T13:39:41;1.08;;;0.80;;
24485;SDS011;13449;49.374;8.584;2023-07-29T13:42:07;2.25;;;1.02;;
24485;SDS011;13449;49.374;8.584;2023-07-29T13:44:34;1.50;;;0.98;;
24485;SDS011;13449;49.374;8.584;2023-07-29T13:47:00;2.38;;;0.90;;
24485;SDS011;13449;49.374;8.584;2023-07-29T13:49:26;0.88;;;0.88;;
24485;SDS011;13449;49.374;8.584;2023-07-29T13:51:53;1.25;;;0.70;;
24485;SDS011;13449;49.374;8.584;2023-07-29T13:54:20;1.70;;;0.70;;
24485;SDS011;13449;49.374;8.584;2023-07-29T13:56:48;4.55;;;0.80;;
24485;SDS011;13449;49.374;8.584;2023-07-29T13:59:19;0.77;;;0.73;;
24485;SDS011;13449;49.374;8.584;2023-07-29T14:01:48;5.32;;;0.85;;
24485;SDS011;13449;49.374;8.584;2023-07-29T14:04:14;0.80;;;0.70;;
24485;SDS011;13449;49.374;8.584;2023-07-29T14:06:41;1.27;;;0.80;;
24485;SDS011;13449;49.374;8.584;2023-07-29T14:09:11;1.00;;;0.85;;
24485;SDS011;13449;49.374;8.584;2023-07-29T14:11:37;1.70;;;0.82;;
24485;SDS011;13449;49.374;8.584;2023-07-29T14:14:04;4.20;;;0.90;;
24485;SDS011;13449;49.374;8.584;2023-07-29T14:16:31;1.48;;;0.77;;
24485;SDS011;13449;49.374;8.584;2023-07-29T14:18:57;3.03;;;0.85;;
24485;SDS011;13449;49.374;8.584;2023-07-29T14:21:24;2.80;;;0.70;;
24485;SDS011;13449;49.374;8.584;2023-07-29T14:23:53;1.42;;;0.93;;
24485;SDS011;13449;49.374;8.584;2023-07-29T14:26:19;1.88;;;0.70;;
24485;SDS011;13449;49.374;8.584;2023-07-29T14:28:46;2.15;;;0.77;;
24485;SDS011;13449;49.374;8.584;2023-07-29T14:31:12;1.17;;;0.82;;
24485;SDS011;13449;49.374;8.584;2023-07-29T14:33:39;3.15;;;0.65;;
24485;SDS011;13449;49.374;8.584;2023-07-29T14:36:06;0.98;;;0.60;;
24485;SDS011;13449;49.374;8.584;2023-07-29T14:38:34;5.22;;;1.13;;
24485;SDS011;13449;49.374;8.584;2023-07-29T14:41:03;1.55;;;0.80;;
24485;SDS011;13449;49.374;8.584;2023-07-29T14:43:32;1.55;;;0.90;;
24485;SDS011;13449;49.374;8.584;2023-07-29T14:46:01;0.80;;;0.75;;
24485;SDS011;13449;49.374;8.584;2023-07-29T14:48:28;1.23;;;1.10;;
24485;SDS011;13449;49.374;8.584;2023-07-29T14:50:57;1.10;;;0.90;;
24485;SDS011;13449;49.374;8.584;2023-07-29T14:53:24;1.33;;;1.00;;
24485;SDS011;13449;49.374;8.584;2023-07-29T14:55:51;2.88;;;0.80;;
24485;SDS011;13449;49.374;8.584;2023-07-29T14:58:18;1.15;;;0.77;;
24485;SDS011;13449;49.374;8.584;2023-07-29T15:00:46;1.40;;;1.00;;
24485;SDS011;13449;49.374;8.584;2023-07-29T15:03:15;1.98;;;1.10;;
24485;SDS011;13449;49.374;8.584;2023-07-29T15:05:42;0.70;;;0.70;;
24485;SDS011;13449;49.374;8.584;2023-07-29T15:08:13;1.20;;;0.88;;
24485;SDS011;13449;49.374;8.584;2023-07-29T15:10:39;0.80;;;0.80;;